Time;durP1;ratioP1;P1;durP2;ratioP2;P2;SDS_P1;SDS_P2;PMS_P1;PMS_P2;Temp;Humidity;BMP_temperature;BMP_pressure;BME280_temperature;BME280_humidity;BME280_pressure;Samples;Min_cycle;Max_cycle;Signal;HPM_P1;HPM_P2
2021/08/15 00:00:10;;;;;;;4.60;1.20;;;;;;;14.51;100.00;99814.88;5012349;28;20069;-74
2021/08/15 00:03:12;;;;;;;2.90;1.30;;;;;;;14.38;100.00;99803.34;5007361;28;20057;-74
2021/08/15 00:06:16;;;;;;;6.35;1.08;;;;;;;14.37;100.00;99807.44;5008634;28;20173;-72
2021/08/15 00:09:19;;;;;;;1.45;0.25;;;;;;;14.26;100.00;99812.97;5008459;28;20137;-73
2021/08/15 00:12:22;;;;;;;2.33;0.63;;;;;;;14.27;100.00;99809.66;5012182;28;20057;-73
2021/08/15 00:15:25;;;;;;;0.50;0.40;;;;;;;14.28;100.00;99804.81;5012256;28;20061;-73
2021/08/15 00:18:28;;;;;;;5.75;0.73;;;;;;;14.25;100.00;99800.25;5012141;28;20503;-72
2021/08/15 00:21:33;;;;;;;6.10;1.40;;;;;;;14.26;100.00;99796.94;5011996;28;20150;-73
2021/08/15 00:24:36;;;;;;;2.80;0.73;;;;;;;14.33;100.00;99792.91;5012427;28;20060;-72
2021/08/15 00:27:39;;;;;;;3.35;0.73;;;;;;;14.48;100.00;99790.69;5011852;28;20148;-72
2021/08/15 00:30:42;;;;;;;5.15;0.75;;;;;;;14.49;100.00;99783.78;5012435;28;20056;-72
2021/08/15 00:33:45;;;;;;;2.85;0.63;;;;;;;14.47;100.00;99777.94;5005116;28;20057;-72
2021/08/15 00:36:49;;;;;;;0.32;0.20;;;;;;;14.51;100.00;99778.44;5011224;28;20454;-72
2021/08/15 00:39:52;;;;;;;2.90;0.90;;;;;;;14.53;100.00;99781.50;5005139;28;20535;-73
2021/08/15 00:42:55;;;;;;;1.65;0.40;;;;;;;14.55;100.00;99778.22;4986086;28;20137;-72
2021/08/15 00:46:05;;;;;;;0.77;0.32;;;;;;;14.57;100.00;99775.69;4986640;28;20109;-72
2021/08/15 00:49:08;;;;;;;2.17;0.65;;;;;;;14.67;100.00;99780.53;4992174;28;20448;-72
2021/08/15 00:52:11;;;;;;;5.05;0.73;;;;;;;14.69;100.00;99766.00;4987590;28;20066;-72
2021/08/15 00:55:14;;;;;;;1.20;0.68;;;;;;;14.72;100.00;99773.44;4988025;28;20105;-71
2021/08/15 00:58:18;;;;;;;0.60;0.25;;;;;;;14.74;100.00;99766.03;4991773;28;20136;-72
2021/08/15 01:01:21;;;;;;;3.35;0.50;;;;;;;14.77;100.00;99762.22;4991049;28;20060;-73
2021/08/15 01:04:26;;;;;;;1.70;0.52;;;;;;;14.79;100.00;99764.53;4991769;28;20456;-72
2021/08/15 01:07:29;;;;;;;4.05;0.60;;;;;;;14.78;100.00;99766.56;4991426;28;20077;-72
2021/08/15 01:10:33;;;;;;;1.65;0.70;;;;;;;14.79;100.00;99759.66;4991659;28;20057;-72
2021/08/15 01:13:38;;;;;;;5.43;1.15;;;;;;;14.83;100.00;99749.00;4991658;28;20141;-72
2021/08/15 01:16:42;;;;;;;1.85;0.68;;;;;;;14.88;100.00;99751.03;5002370;28;20064;-72
2021/08/15 01:19:45;;;;;;;1.85;0.50;;;;;;;14.91;100.00;99750.03;4991646;28;20108;-72
2021/08/15 01:22:48;;;;;;;2.25;0.82;;;;;;;14.88;100.00;99745.41;4991676;28;20423;-73
2021/08/15 01:25:52;;;;;;;2.38;0.52;;;;;;;14.89;100.00;99741.34;4991034;28;20053;-72
2021/08/15 01:28:55;;;;;;;9.90;1.15;;;;;;;14.91;100.00;99730.38;4991774;28;20062;-72
2021/08/15 01:31:58;;;;;;;2.90;0.88;;;;;;;14.91;100.00;99727.59;4991483;28;20073;-72
2021/08/15 01:35:03;;;;;;;10.52;0.75;;;;;;;14.92;100.00;99720.69;4991687;28;20061;-73
2021/08/15 01:38:06;;;;;;;2.47;0.90;;;;;;;14.96;100.00;99717.66;4991577;28;20578;-73
2021/08/15 01:41:09;;;;;;;2.90;0.95;;;;;;;15.01;100.00;99717.63;4990803;28;20169;-74
2021/08/15 01:44:13;;;;;;;0.93;0.40;;;;;;;15.03;100.00;99717.13;4991531;28;20161;-73
2021/08/15 01:47:16;;;;;;;1.88;0.82;;;;;;;15.00;100.00;99713.31;4991497;28;20092;-75
2021/08/15 01:50:19;;;;;;;1.77;0.70;;;;;;;14.98;100.00;99709.50;4987511;28;20061;-76
2021/08/15 01:53:22;;;;;;;2.00;0.68;;;;;;;14.90;100.00;99700.06;4991694;28;20077;-74
2021/08/15 01:56:25;;;;;;;2.17;0.50;;;;;;;14.89;100.00;99699.28;4991287;28;20061;-74
2021/08/15 01:59:28;;;;;;;1.95;0.98;;;;;;;14.87;100.00;99699.03;4991463;28;20061;-75
2021/08/15 02:02:31;;;;;;;2.42;1.02;;;;;;;14.83;100.00;99697.75;4991230;28;20116;-74
2021/08/15 02:05:35;;;;;;;0.60;0.50;;;;;;;14.82;100.00;99694.19;4990937;28;20062;-74
2021/08/15 02:08:38;;;;;;;4.82;0.75;;;;;;;14.86;100.00;99685.50;4991074;28;20116;-74
2021/08/15 02:11:41;;;;;;;6.43;1.20;;;;;;;14.89;100.00;99688.06;4991423;28;20060;-74
2021/08/15 02:14:44;;;;;;;1.50;0.77;;;;;;;14.91;100.00;99682.72;4991580;28;20069;-74
2021/08/15 02:17:47;;;;;;;3.22;0.70;;;;;;;14.90;100.00;99686.03;4994520;28;20107;-74
2021/08/15 02:20:50;;;;;;;1.58;0.43;;;;;;;14.95;100.00;99677.63;4991231;28;20515;-74
2021/08/15 02:23:55;;;;;;;1.75;0.57;;;;;;;14.95;100.00;99677.63;4991350;28;20140;-74
2021/08/15 02:26:58;;;;;;;1.23;0.50;;;;;;;14.98;100.00;99682.22;4992034;28;20084;-74
2021/08/15 02:30:03;;;;;;;2.97;0.77;;;;;;;15.02;100.00;99671.50;5002074;28;20079;-74
2021/08/15 02:33:06;;;;;;;1.95;1.20;;;;;;;15.01;100.00;99661.56;5013920;28;20064;-74
2021/08/15 02:36:09;;;;;;;4.15;0.88;;;;;;;14.99;100.00;99654.91;5009078;28;20108;-74
2021/08/15 02:39:12;;;;;;;5.78;1.42;;;;;;;15.00;100.00;99657.22;5013831;28;20511;-74
2021/08/15 02:42:15;;;;;;;1.35;0.80;;;;;;;14.99;100.00;99652.88;5013722;28;20061;-74
2021/08/15 02:45:21;;;;;;;1.50;0.68;;;;;;;14.99;100.00;99654.91;5013680;28;20193;-74
2021/08/15 02:48:23;;;;;;;1.65;0.73;;;;;;;14.96;100.00;99648.31;5013630;28;20126;-73
2021/08/15 02:51:27;;;;;;;1.55;0.63;;;;;;;14.97;100.00;99641.41;5013242;28;20052;-74
2021/08/15 02:54:30;;;;;;;4.43;1.73;;;;;;;14.90;100.00;99639.13;5013873;28;20139;-74
2021/08/15 02:57:33;;;;;;;5.40;1.05;;;;;;;14.94;100.00;99641.69;5013617;28;20084;-74
2021/08/15 03:00:36;;;;;;;0.90;0.30;;;;;;;14.97;100.00;99635.81;5013618;28;20430;-73
2021/08/15 03:03:39;;;;;;;4.28;1.17;;;;;;;14.98;100.00;99634.53;5013751;28;20092;-73
2021/08/15 03:06:42;;;;;;;5.93;1.35;;;;;;;14.99;100.00;99633.25;5013298;28;20083;-73
2021/08/15 03:09:46;;;;;;;2.15;0.88;;;;;;;14.99;100.00;99633.25;5005413;28;20112;-73
2021/08/15 03:12:49;;;;;;;3.33;0.80;;;;;;;15.02;100.00;99631.47;5013233;28;20103;-73
2021/08/15 03:15:52;;;;;;;4.55;1.00;;;;;;;15.02;100.00;99626.63;5006324;28;20100;-72
2021/08/15 03:18:55;;;;;;;1.92;0.52;;;;;;;15.00;100.00;99626.38;5013121;28;20157;-72
2021/08/15 03:21:58;;;;;;;4.65;0.73;;;;;;;15.02;100.00;99625.88;5006886;28;20065;-73
2021/08/15 03:25:01;;;;;;;1.30;0.40;;;;;;;15.02;100.00;99623.84;5013347;28;20569;-73
2021/08/15 03:28:05;;;;;;;1.48;0.90;;;;;;;15.08;100.00;99604.94;5013443;28;20103;-72
2021/08/15 03:31:08;;;;;;;4.60;1.10;;;;;;;15.10;100.00;99615.66;5013118;28;20056;-73
2021/08/15 03:34:13;;;;;;;2.97;0.80;;;;;;;15.10;100.00;99605.19;5008989;28;20069;-72
2021/08/15 03:37:16;;;;;;;2.35;0.93;;;;;;;15.11;100.00;99600.34;5009233;28;20137;-72
2021/08/15 03:40:19;;;;;;;1.85;0.85;;;;;;;15.08;100.00;99601.38;5009303;28;20064;-73
2021/08/15 03:43:22;;;;;;;3.28;1.15;;;;;;;15.11;100.00;99598.31;5012965;28;20052;-73
2021/08/15 03:46:25;;;;;;;1.73;0.65;;;;;;;15.11;100.00;99589.91;5012996;28;20103;-72
2021/08/15 03:49:29;;;;;;;4.75;0.50;;;;;;;15.17;100.00;99587.84;5012682;28;20121;-73
2021/08/15 03:52:38;;;;;;;2.45;0.65;;;;;;;15.22;100.00;99577.13;4974988;28;20062;-72
2021/08/15 03:55:41;;;;;;;1.17;0.38;;;;;;;15.23;100.00;99573.03;4973707;28;20065;-73
2021/08/15 03:58:43;;;;;;;3.30;0.40;;;;;;;15.22;100.00;99568.72;4973832;28;20106;-72
2021/08/15 04:01:47;;;;;;;3.50;0.43;;;;;;;15.20;100.00;99574.84;4973826;28;20066;-73
2021/08/15 04:04:50;;;;;;;3.58;0.73;;;;;;;15.10;100.00;99563.13;4974157;28;20133;-73
2021/08/15 04:07:53;;;;;;;2.83;0.65;;;;;;;15.03;100.00;99566.44;4973622;28;20062;-73
2021/08/15 04:10:56;;;;;;;0.75;0.20;;;;;;;15.04;100.00;99573.59;4973927;28;20065;-73
2021/08/15 04:13:59;;;;;;;1.10;0.20;;;;;;;14.99;100.00;99565.94;4973401;28;20108;-73
2021/08/15 04:17:02;;;;;;;1.63;0.45;;;;;;;15.01;100.00;99566.19;4973904;28;20097;-73
2021/08/15 04:20:06;;;;;;;2.42;0.40;;;;;;;15.01;100.00;99569.00;4978247;28;20101;-73
2021/08/15 04:23:08;;;;;;;0.93;0.40;;;;;;;15.02;100.00;99559.31;4977888;28;20065;-73
2021/08/15 04:26:11;;;;;;;1.48;0.35;;;;;;;15.00;100.00;99559.06;4977002;28;20461;-73
2021/08/15 04:29:14;;;;;;;7.07;0.35;;;;;;;15.07;100.00;99560.59;4976714;28;20449;-73
2021/08/15 04:32:17;;;;;;;4.03;0.50;;;;;;;15.07;100.00;99555.72;4988943;28;20066;-73
2021/08/15 04:35:20;;;;;;;0.40;0.10;;;;;;;15.06;100.00;99547.84;4995936;28;20056;-73
2021/08/15 04:38:25;;;;;;;1.92;0.65;;;;;;;15.07;100.00;99552.91;4994944;28;20053;-73
2021/08/15 04:41:27;;;;;;;2.03;0.70;;;;;;;15.01;100.00;99546.56;4996821;28;20185;-73
2021/08/15 04:44:30;;;;;;;2.45;0.63;;;;;;;14.99;100.00;99551.94;4997605;28;20093;-73
2021/08/15 04:47:33;;;;;;;1.20;0.30;;;;;;;15.12;100.00;99563.38;4998147;28;20109;-73
2021/08/15 04:50:37;;;;;;;2.97;1.13;;;;;;;15.08;100.00;99551.66;5003402;28;20049;-73
2021/08/15 04:53:40;;;;;;;0.60;0.20;;;;;;;14.99;100.00;99557.53;5018698;28;20107;-73
2021/08/15 04:56:43;;;;;;;0.75;0.30;;;;;;;14.87;100.00;99547.63;5014003;28;20142;-72
2021/08/15 04:59:46;;;;;;;3.40;0.57;;;;;;;14.72;100.00;99549.94;5014094;28;20064;-74
2021/08/15 05:02:49;;;;;;;1.05;0.28;;;;;;;14.70;100.00;99544.09;5014616;28;20450;-74
2021/08/15 05:05:52;;;;;;;0.70;0.10;;;;;;;14.70;100.00;99549.69;5014802;28;20057;-74
2021/08/15 05:08:56;;;;;;;2.47;1.20;;;;;;;14.65;100.00;99550.47;5008684;28;20581;-74
2021/08/15 05:11:59;;;;;;;2.38;0.60;;;;;;;14.72;100.00;99546.38;5001163;28;20116;-74
2021/08/15 05:15:02;;;;;;;0.85;0.43;;;;;;;14.76;100.00;99547.63;5001121;28;20507;-74
2021/08/15 05:18:06;;;;;;;1.45;0.65;;;;;;;14.85;100.00;99549.41;5000932;28;20057;-73
2021/08/15 05:21:09;;;;;;;3.95;0.45;;;;;;;14.89;100.00;99547.88;5001360;28;20097;-73
2021/08/15 05:24:12;;;;;;;1.02;0.10;;;;;;;15.01;100.00;99557.00;5002027;28;20060;-73
2021/08/15 05:27:15;;;;;;;7.28;0.65;;;;;;;15.06;100.00;99559.81;5000208;28;20138;-73
2021/08/15 05:30:18;;;;;;;2.85;1.15;;;;;;;15.10;100.00;99553.94;5007202;28;20465;-74
2021/08/15 05:33:21;;;;;;;0.77;0.13;;;;;;;15.14;100.00;99558.00;4996936;28;20069;-73
2021/08/15 05:36:24;;;;;;;2.38;0.98;;;;;;;15.19;100.00;99557.25;4992975;28;20065;-73
2021/08/15 05:39:27;;;;;;;1.75;0.30;;;;;;;15.26;100.00;99560.78;4991465;28;20427;-73
2021/08/15 05:42:30;;;;;;;9.27;0.90;;;;;;;15.33;100.00;99557.47;5010595;28;20072;-74
2021/08/15 05:45:33;;;;;;;0.95;0.60;;;;;;;15.40;100.00;99559.72;5010858;28;20459;-73
2021/08/15 05:48:37;;;;;;;0.60;0.22;;;;;;;15.47;100.00;99553.59;5010727;28;20670;-73
2021/08/15 05:51:40;;;;;;;1.13;0.30;;;;;;;15.46;100.00;99558.47;5010058;28;20193;-73
2021/08/15 05:54:43;;;;;;;2.85;0.38;;;;;;;15.45;100.00;99568.16;5002683;28;20064;-73
2021/08/15 05:57:46;;;;;;;0.55;0.32;;;;;;;15.49;100.00;99563.03;5003230;28;20056;-73
2021/08/15 06:00:49;;;;;;;2.22;0.50;;;;;;;15.49;100.00;99567.88;5004004;28;20064;-74
2021/08/15 06:03:53;;;;;;;6.13;0.50;;;;;;;15.52;100.00;99566.84;5008197;28;20088;-74
2021/08/15 06:06:56;;;;;;;0.80;0.40;;;;;;;15.60;100.00;99562.22;5014488;28;20065;-73
2021/08/15 06:09:59;;;;;;;2.83;0.17;;;;;;;15.62;100.00;99570.88;5007742;28;20091;-74
2021/08/15 06:13:02;;;;;;;2.33;0.43;;;;;;;15.68;100.00;99563.22;5008046;28;20519;-74
2021/08/15 06:16:05;;;;;;;5.18;0.50;;;;;;;15.78;100.00;99567.25;5012503;28;20058;-73
2021/08/15 06:19:08;;;;;;;3.03;0.70;;;;;;;15.82;100.00;99573.34;5007336;28;20065;-73
2021/08/15 06:22:13;;;;;;;0.80;0.45;;;;;;;15.94;100.00;99574.78;5012009;28;20065;-74
2021/08/15 06:25:16;;;;;;;0.73;0.30;;;;;;;16.00;100.00;99578.34;5011456;28;20092;-74
2021/08/15 06:28:19;;;;;;;1.38;0.45;;;;;;;16.02;100.00;99578.59;5014025;28;20527;-74
2021/08/15 06:31:23;;;;;;;1.60;0.50;;;;;;;16.04;100.00;99578.84;5014274;28;20577;-73
2021/08/15 06:34:26;;;;;;;0.30;0.20;;;;;;;16.13;100.00;99572.91;5014341;28;20064;-74
2021/08/15 06:37:29;;;;;;;1.27;0.43;;;;;;;16.17;100.00;99564.97;5013843;28;20061;-73
2021/08/15 06:40:32;;;;;;;0.32;0.25;;;;;;;16.29;100.00;99565.63;5013432;28;20061;-74
2021/08/15 06:43:35;;;;;;;0.82;0.22;;;;;;;16.38;100.00;99559.69;5013616;28;20507;-74
2021/08/15 06:46:38;;;;;;;2.05;0.30;;;;;;;16.44;100.00;99563.22;5013824;28;20081;-74
2021/08/15 06:49:42;;;;;;;0.85;0.10;;;;;;;16.45;100.00;99567.56;5013444;28;20068;-73
2021/08/15 06:52:45;;;;;;;2.45;0.50;;;;;;;16.48;100.00;99570.09;5013569;28;20060;-73
2021/08/15 06:55:48;;;;;;;0.30;0.10;;;;;;;16.49;100.00;99568.06;5013910;28;20088;-73
2021/08/15 06:58:51;;;;;;;0.30;0.22;;;;;;;16.50;100.00;99575.97;5014050;28;20111;-73
2021/08/15 07:01:55;;;;;;;0.65;0.10;;;;;;;16.53;100.00;99579.78;5013917;28;20061;-74
2021/08/15 07:04:58;;;;;;;1.50;0.10;;;;;;;16.60;100.00;99574.38;5013536;28;20056;-73
2021/08/15 07:08:01;;;;;;;1.40;0.32;;;;;;;16.68;100.00;99583.00;5013112;28;20096;-74
2021/08/15 07:11:04;;;;;;;4.18;0.25;;;;;;;16.69;100.00;99576.09;5007993;28;20092;-74
2021/08/15 07:14:07;;;;;;;0.10;0.10;;;;;;;16.77;100.00;99577.03;5001155;28;20077;-74
2021/08/15 07:17:10;;;;;;;4.60;0.20;;;;;;;16.83;100.00;99579.81;5009336;28;20105;-74
2021/08/15 07:20:14;;;;;;;3.00;0.10;;;;;;;16.89;100.00;99578.44;5012826;28;20092;-74
2021/08/15 07:23:17;;;;;;;0.47;0.25;;;;;;;17.00;100.00;99571.97;5011583;28;20056;-73
2021/08/15 07:26:20;;;;;;;0.35;0.03;;;;;;;17.00;100.00;99574.78;5010198;28;20700;-73
2021/08/15 07:29:23;;;;;;;0.30;0.30;;;;;;;17.04;100.00;99570.41;5011489;28;20577;-73
2021/08/15 07:32:26;;;;;;;0.10;0.10;;;;;;;17.10;100.00;99564.72;5010895;28;20056;-74
2021/08/15 07:35:31;;;;;;;2.30;0.20;;;;;;;17.26;100.00;99558.16;5011147;28;20088;-73
2021/08/15 07:38:34;;;;;;;0.40;0.15;;;;;;;17.37;100.00;99555.19;5012585;28;20071;-74
2021/08/15 07:41:37;;;;;;;0.40;0.00;;;;;;;17.32;100.00;99550.41;5012948;28;20456;-74
2021/08/15 07:44:40;;;;;;;0.30;0.10;;;;;;;17.42;100.00;99540.28;5013066;28;20459;-74
2021/08/15 07:47:43;;;;;;;0.10;0.10;;;;;;;17.43;100.00;99534.13;5013149;28;20123;-73
2021/08/15 07:50:46;;;;;;;0.10;0.10;;;;;;;17.46;100.00;99529.47;5012427;28;20138;-74
2021/08/15 07:53:50;;;;;;;0.38;0.10;;;;;;;17.37;100.00;99527.81;5012808;28;20518;-73
2021/08/15 07:56:53;;;;;;;0.20;0.00;;;;;;;17.42;100.00;99523.41;5012836;28;20091;-74
2021/08/15 07:59:57;;;;;;;0.80;0.10;;;;;;;17.37;100.00;99512.94;5012343;28;20069;-74
2021/08/15 08:03:00;;;;;;;0.10;0.10;;;;;;;17.34;100.00;99523.25;5012910;28;20060;-74
2021/08/15 08:06:03;;;;;;;0.40;0.05;;;;;;;17.38;100.00;99529.34;5007144;28;20105;-74
2021/08/15 08:09:06;;;;;;;0.35;0.10;;;;;;;17.14;100.00;99522.97;5007746;28;20061;-74
2021/08/15 08:12:09;;;;;;;1.75;0.10;;;;;;;16.98;100.00;99519.03;5012414;28;20200;-74
2021/08/15 08:15:12;;;;;;;0.20;0.20;;;;;;;17.14;100.00;99520.16;5012605;28;20742;-74
2021/08/15 08:18:15;;;;;;;0.15;0.03;;;;;;;17.37;100.00;99519.34;5009033;28;20112;-74
2021/08/15 08:21:18;;;;;;;0.32;0.17;;;;;;;17.52;100.00;99527.38;5011579;28;20759;-74
2021/08/15 08:24:21;;;;;;;0.10;0.03;;;;;;;17.73;100.00;99519.94;5011329;28;20108;-74
2021/08/15 08:27:24;;;;;;;0.43;0.20;;;;;;;17.85;100.00;99521.31;5012364;28;20522;-74
2021/08/15 08:30:27;;;;;;;0.30;0.10;;;;;;;17.73;100.00;99527.63;5012230;28;20115;-74
2021/08/15 08:33:32;;;;;;;2.90;0.20;;;;;;;17.61;100.00;99529.84;5012080;28;20473;-74
2021/08/15 08:36:34;;;;;;;5.78;0.15;;;;;;;17.55;100.00;99523.50;5012276;28;20696;-74
2021/08/15 08:39:37;;;;;;;0.20;0.10;;;;;;;17.69;100.00;99521.56;5012004;28;20072;-74
2021/08/15 08:42:42;;;;;;;0.50;0.20;;;;;;;17.93;100.00;99521.47;5012363;28;20115;-73
2021/08/15 08:45:46;;;;;;;1.15;0.13;;;;;;;18.22;100.00;99531.00;5004537;28;20398;-73
2021/08/15 08:48:51;;;;;;;3.85;0.38;;;;;;;18.31;100.00;99519.34;5012454;28;20088;-74
2021/08/15 08:51:55;;;;;;;1.65;0.43;;;;;;;18.17;100.00;99502.38;5005057;28;20124;-74
2021/08/15 08:55:00;;;;;;;5.10;0.10;;;;;;;17.98;100.00;99500.88;5012069;28;20116;-74
2021/08/15 08:58:03;;;;;;;0.55;0.20;;;;;;;18.02;100.00;99502.09;5012074;28;20060;-74
2021/08/15 09:01:06;;;;;;;7.47;1.25;;;;;;;18.08;100.00;99496.41;5011300;28;20065;-74
2021/08/15 09:04:10;;;;;;;2.95;0.15;;;;;;;18.04;100.00;99485.41;5011091;28;20144;-74
2021/08/15 09:07:18;;;;;;;1.45;0.20;;;;;;;18.04;100.00;99476.22;5007059;28;20150;-74
2021/08/15 09:10:29;;;;;;;3.30;0.10;;;;;;;18.56;100.00;99475.63;5010953;28;20187;-74
2021/08/15 09:13:32;;;;;;;8.40;0.52;;;;;;;18.67;100.00;99473.34;5011568;28;20431;-74
2021/08/15 09:16:58;;;;;;;4.20;0.32;;;;;;;18.67;100.00;99475.41;5012024;28;20084;-74
2021/08/15 09:20:02;;;;;;;0.75;0.35;;;;;;;18.79;100.00;99473.91;5006090;28;20526;-74
2021/08/15 09:23:34;;;;;;;5.15;0.68;;;;;;;18.88;100.00;99465.03;5011214;28;20061;-74
2021/08/15 09:26:36;;;;;;;0.75;0.30;;;;;;;18.72;100.00;99464.03;5010464;28;20113;-74
2021/08/15 09:29:39;;;;;;;3.63;0.65;;;;;;;18.56;100.00;99459.44;5011798;28;20411;-73
2021/08/15 09:32:48;;;;;;;2.30;0.20;;;;;;;18.55;100.00;99460.75;5003513;28;20077;-74
2021/08/15 09:35:52;;;;;;;2.05;0.17;;;;;;;18.61;100.00;99446.56;5012123;28;20084;-74
2021/08/15 09:38:58;;;;;;;2.78;0.70;;;;;;;18.71;100.00;99430.75;5008969;28;20065;-74
2021/08/15 09:42:02;;;;;;;1.73;0.40;;;;;;;18.90;100.00;99431.38;5015347;28;20057;-73
2021/08/15 09:45:05;;;;;;;1.80;0.25;;;;;;;18.94;100.00;99448.75;5009948;28;20088;-74
2021/08/15 09:48:40;;;;;;;0.10;0.10;;;;;;;19.14;100.00;99433.97;5015146;28;20145;-73
2021/08/15 09:51:43;;;;;;;1.77;0.32;;;;;;;19.27;100.00;99416.25;5014919;28;20523;-74
2021/08/15 09:55:00;;;;;;;4.00;1.27;;;;;;;19.75;100.00;99423.41;5007510;28;20153;-74
2021/08/15 09:58:16;;;;;;;4.38;0.73;;;;;;;19.85;100.00;99418.78;5014293;28;20060;-74
2021/08/15 10:01:19;;;;;;;2.83;0.20;;;;;;;19.82;100.00;99420.66;5013993;28;20077;-74
2021/08/15 10:04:23;;;;;;;5.80;0.30;;;;;;;19.58;100.00;99421.72;5015083;28;20565;-75
2021/08/15 10:07:26;;;;;;;6.82;0.30;;;;;;;19.36;100.00;99430.69;5014505;28;20103;-74
2021/08/15 10:10:29;;;;;;;2.22;0.25;;;;;;;19.19;100.00;99435.91;4995308;28;20421;-74
2021/08/15 10:13:32;;;;;;;4.70;0.28;;;;;;;18.99;100.00;99456.34;4994792;28;20106;-74
2021/08/15 10:16:56;;;;;;;4.18;0.38;;;;;;;18.92;100.00;99454.94;4994909;28;20057;-74
2021/08/15 10:20:03;;;;;;;1.30;0.10;;;;;;;18.75;100.00;99465.75;4988863;28;20559;-74
2021/08/15 10:23:11;;;;;;;5.22;0.20;;;;;;;18.72;100.00;99466.09;4990416;28;20057;-74
2021/08/15 10:26:26;;;;;;;4.45;0.57;;;;;;;18.41;100.00;99456.34;4995038;28;20100;-74
2021/08/15 10:29:39;;;;;;;0.20;0.20;;;;;;;18.15;100.00;99445.00;4994488;28;20137;-74
2021/08/15 10:32:54;;;;;;;1.80;0.20;;;;;;;18.04;100.00;99454.41;4995026;28;20112;-74
2021/08/15 10:36:16;;;;;;;3.03;0.47;;;;;;;17.86;100.00;99449.59;4987182;28;20519;-74
2021/08/15 10:39:37;;;;;;;0.93;0.57;;;;;;;17.94;100.00;99444.84;4993989;28;20097;-74
2021/08/15 10:42:41;;;;;;;1.15;0.10;;;;;;;18.12;100.00;99438.41;5011355;28;20125;-74
2021/08/15 10:46:12;;;;;;;6.38;0.70;;;;;;;18.58;100.00;99428.63;5007204;28;20672;-74
2021/08/15 10:49:14;;;;;;;3.60;0.57;;;;;;;18.98;100.00;99420.94;5000582;28;20090;-74
2021/08/15 10:52:27;;;;;;;5.13;0.20;;;;;;;19.50;100.00;99420.88;5002089;28;20054;-74
2021/08/15 10:55:41;;;;;;;1.98;0.20;;;;;;;19.83;100.00;99419.34;4993916;28;20081;-74
2021/08/15 10:58:46;;;;;;;4.20;0.57;;;;;;;19.99;100.00;99415.34;5006863;28;20159;-74
2021/08/15 11:01:49;;;;;;;0.10;0.10;;;;;;;20.05;100.00;99412.41;5008493;28;20049;-74
2021/08/15 11:04:59;;;;;;;4.72;0.55;;;;;;;19.97;100.00;99411.56;5005864;28;20053;-74
2021/08/15 11:08:04;;;;;;;8.25;0.95;;;;;;;19.93;100.00;99405.50;4999582;28;20064;-74
2021/08/15 11:11:08;;;;;;;4.95;0.30;;;;;;;20.06;100.00;99402.59;5004574;28;20061;-74
2021/08/15 11:14:24;;;;;;;2.00;0.40;;;;;;;20.19;100.00;99394.03;5002648;28;20061;-74
2021/08/15 11:17:29;;;;;;;1.38;0.13;;;;;;;20.39;100.00;99396.88;5000224;28;20049;-74
2021/08/15 11:20:35;;;;;;;1.17;0.22;;;;;;;20.53;100.00;99399.63;4999259;28;20065;-74
2021/08/15 11:23:41;;;;;;;1.52;0.32;;;;;;;20.59;100.00;99391.72;5000757;28;20065;-74
2021/08/15 11:26:45;;;;;;;5.18;0.28;;;;;;;20.47;100.00;99396.91;4999029;28;20108;-74
2021/08/15 11:29:49;;;;;;;0.60;0.30;;;;;;;20.24;100.00;99390.34;5006887;28;20105;-74
2021/08/15 11:32:54;;;;;;;0.85;0.22;;;;;;;20.00;100.00;99393.50;5001830;28;20196;-75
2021/08/15 11:35:58;;;;;;;2.63;0.30;;;;;;;19.83;100.00;99390.31;5002770;28;20060;-74
2021/08/15 11:39:04;;;;;;;6.45;0.40;;;;;;;19.59;100.00;99400.66;5007775;28;20060;-74
2021/08/15 11:42:16;;;;;;;0.95;0.20;;;;;;;19.76;100.00;99391.78;5013160;28;20511;-74
2021/08/15 11:45:19;;;;;;;3.30;0.30;;;;;;;20.05;100.00;99384.13;5009344;28;20064;-75
2021/08/15 11:48:23;;;;;;;3.05;0.52;;;;;;;20.14;100.00;99383.66;5012709;28;20415;-74
2021/08/15 11:51:26;;;;;;;1.42;0.00;;;;;;;20.05;100.00;99384.91;5012434;28;20096;-74
2021/08/15 11:54:39;;;;;;;1.80;0.13;;;;;;;19.89;100.00;99388.88;5013103;28;20113;-75
2021/08/15 11:57:46;;;;;;;6.65;0.10;;;;;;;19.78;100.00;99383.50;5012679;28;20119;-74
2021/08/15 12:00:49;;;;;;;0.68;0.10;;;;;;;19.75;100.00;99383.84;5005497;28;20112;-74
2021/08/15 12:04:03;;;;;;;3.42;0.30;;;;;;;19.74;100.00;99382.31;5006061;28;20522;-74
2021/08/15 12:07:06;;;;;;;0.22;0.20;;;;;;;19.84;100.00;99380.56;5012786;28;20061;-74
2021/08/15 12:10:29;;;;;;;5.50;0.20;;;;;;;20.18;100.00;99392.53;5012931;28;20053;-73
2021/08/15 12:13:36;;;;;;;0.22;0.10;;;;;;;20.16;100.00;99384.59;5012059;28;20069;-73
2021/08/15 12:16:50;;;;;;;1.15;0.15;;;;;;;20.09;100.00;99387.38;5012235;28;20120;-73
2021/08/15 12:19:53;;;;;;;3.50;0.70;;;;;;;20.22;100.00;99381.66;5012080;28;20069;-74
2021/08/15 12:23:06;;;;;;;0.13;0.03;;;;;;;20.37;100.00;99384.59;5005646;28;20418;-74
2021/08/15 12:26:09;;;;;;;4.18;0.30;;;;;;;20.67;100.00;99376.31;4992469;28;20058;-74
2021/08/15 12:29:27;;;;;;;1.33;0.30;;;;;;;20.69;100.00;99368.03;4992610;28;20206;-73
2021/08/15 12:32:31;;;;;;;3.10;0.10;;;;;;;20.95;100.00;99361.34;4991197;28;20134;-74
2021/08/15 12:35:34;;;;;;;3.20;0.57;;;;;;;21.05;100.00;99360.28;4992104;28;20049;-74
2021/08/15 12:38:37;;;;;;;0.50;0.10;;;;;;;21.05;100.00;99360.28;4991965;28;20559;-74
2021/08/15 12:41:52;;;;;;;6.13;0.43;;;;;;;21.36;100.00;99360.41;4992063;28;20053;-74
2021/08/15 12:44:57;;;;;;;3.47;0.10;;;;;;;21.52;100.00;99364.78;4997962;28;20061;-74
2021/08/15 12:48:02;;;;;;;2.90;0.20;;;;;;;21.39;100.00;99353.63;4992471;28;20101;-75
2021/08/15 12:51:05;;;;;;;0.22;0.10;;;;;;;21.26;100.00;99350.94;4990329;28;20181;-75
2021/08/15 12:54:09;;;;;;;1.20;0.13;;;;;;;20.94;100.00;99354.94;4950327;28;20057;-74
2021/08/15 12:57:12;;;;;;;0.30;0.00;;;;;;;20.40;100.00;99363.66;4949109;28;20053;-75
2021/08/15 13:00:18;;;;;;;0.65;0.20;;;;;;;20.03;100.00;99364.13;4944572;28;20060;-74
2021/08/15 13:03:22;;;;;;;0.45;0.17;;;;;;;19.58;100.00;99365.22;4944503;28;20056;-74
2021/08/15 13:06:26;;;;;;;1.02;0.38;;;;;;;19.49;100.00;99367.78;4944734;28;21318;-74
2021/08/15 13:09:29;;;;;;;0.55;0.22;;;;;;;19.74;100.00;99359.72;4945308;28;20077;-74
2021/08/15 13:12:33;;;;;;;2.22;0.20;;;;;;;20.03;100.00;99352.81;4944742;28;20056;-72
2021/08/15 13:15:36;;;;;;;3.28;0.45;;;;;;;20.00;100.00;99354.69;4944311;28;20057;-73
2021/08/15 13:18:40;;;;;;;2.55;0.10;;;;;;;19.86;100.00;99358.88;4943994;28;20052;-74
2021/08/15 13:21:43;;;;;;;3.35;0.28;;;;;;;19.54;100.00;99358.38;4943551;28;21063;-74
2021/08/15 13:24:46;;;;;;;3.47;0.40;;;;;;;19.37;100.00;99355.19;4944917;28;20057;-73
2021/08/15 13:27:50;;;;;;;3.47;0.30;;;;;;;19.62;100.00;99354.34;4953263;28;20813;-73
2021/08/15 13:30:56;;;;;;;0.73;0.10;;;;;;;20.02;100.00;99354.13;4962837;28;20057;-74
2021/08/15 13:33:59;;;;;;;0.98;0.10;;;;;;;20.11;100.00;99356.47;4979113;28;20088;-74
2021/08/15 13:37:05;;;;;;;1.65;0.10;;;;;;;19.94;100.00;99356.13;4979837;28;20116;-74
2021/08/15 13:40:13;;;;;;;2.17;0.60;;;;;;;19.60;100.00;99342.06;4963810;28;20116;-75
2021/08/15 13:43:19;;;;;;;;;;;;;;;19.27;100.00;99346.44;4965431;28;20068;-76
2021/08/15 13:46:22;;;;;;;2.08;0.10;;;;;;;19.14;100.00;99338.00;4949556;28;19991;-75
2021/08/15 13:49:25;;;;;;;2.33;0.30;;;;;;;18.96;100.00;99344.53;4945045;28;20310;-74
2021/08/15 13:52:28;;;;;;;5.40;0.13;;;;;;;18.83;100.00;99353.03;4945600;28;20136;-74
2021/08/15 13:55:32;;;;;;;1.42;0.38;;;;;;;18.76;100.00;99345.22;4943269;28;20060;-74
2021/08/15 13:58:35;;;;;;;1.95;0.30;;;;;;;18.63;100.00;99342.41;4945072;28;20654;-73
2021/08/15 14:01:38;;;;;;;3.97;0.35;;;;;;;18.44;100.00;99339.72;4942823;28;20227;-73
2021/08/15 14:04:41;;;;;;;0.75;0.10;;;;;;;18.40;100.00;99344.13;4944637;28;20065;-74
2021/08/15 14:07:45;;;;;;;1.00;0.15;;;;;;;18.60;100.00;99346.31;4944367;28;20712;-73
2021/08/15 14:10:48;;;;;;;3.40;0.95;;;;;;;18.88;100.00;99338.06;4936399;28;20400;-73
2021/08/15 14:13:51;;;;;;;0.50;0.15;;;;;;;19.10;100.00;99331.91;4944623;28;20288;-73
2021/08/15 14:16:54;;;;;;;2.65;0.30;;;;;;;19.31;100.00;99323.50;4945151;28;20117;-73